createdAt,value
2023-01-09T00:00:21.121Z,48.33
2023-01-09T00:05:42.992Z,43.60
2023-01-09T00:11:05.206Z,45.08
2023-01-09T00:16:27.230Z,47.95
2023-01-09T00:21:49.087Z,40.75
2023-01-09T00:27:11.010Z,45.47
2023-01-09T00:32:32.953Z,45.00
2023-01-09T00:37:55.125Z,39.60
2023-01-09T00:43:18.524Z,41.15
2023-01-09T00:48:43.208Z,44.03
2023-01-09T00:54:05.413Z,42.35
2023-01-09T00:59:28.035Z,41.75
2023-01-09T01:04:49.872Z,39.63
2023-01-09T01:10:15.201Z,40.15
2023-01-09T01:15:41.636Z,40.42
2023-01-09T01:26:32.832Z,39.03
2023-01-09T01:31:54.993Z,38.38
2023-01-09T01:37:16.820Z,36.22
2023-01-09T01:42:49.409Z,37.00
2023-01-09T01:48:16.454Z,36.00
2023-01-09T01:53:43.042Z,39.50
2023-01-09T01:59:34.078Z,37.60
2023-01-09T02:04:58.878Z,34.00
2023-01-09T02:10:21.047Z,37.05
2023-01-09T02:16:18.643Z,36.00
2023-01-09T02:21:55.479Z,43.13
2023-01-09T02:27:29.410Z,34.47
2023-01-09T02:33:09.837Z,34.13
2023-01-09T02:39:05.511Z,35.30
2023-01-09T02:44:30.338Z,33.50
2023-01-09T02:49:57.653Z,35.53
2023-01-09T02:55:41.228Z,36.08
2023-01-09T03:01:26.294Z,36.05
2023-01-09T03:12:13.705Z,34.20
2023-01-09T03:17:39.653Z,31.05
2023-01-09T03:23:04.286Z,37.88
2023-01-09T03:28:29.006Z,37.70
2023-01-09T03:33:51.003Z,33.47
2023-01-09T03:39:12.843Z,33.22
2023-01-09T03:44:34.663Z,32.03
2023-01-09T03:49:56.495Z,30.90
2023-01-09T03:55:18.293Z,31.73
2023-01-09T04:00:40.273Z,31.08
2023-01-09T04:06:02.091Z,29.92
2023-01-09T04:11:23.895Z,31.20
2023-01-09T04:16:45.790Z,32.83
2023-01-09T04:22:07.846Z,31.23
2023-01-09T04:27:30.017Z,32.03
2023-01-09T04:32:51.853Z,31.67
2023-01-09T04:38:13.703Z,29.73
2023-01-09T04:43:35.587Z,34.47
2023-01-09T04:48:57.489Z,30.38
2023-01-09T04:54:19.724Z,29.20
2023-01-09T04:59:41.625Z,30.33
2023-01-09T05:05:04.288Z,32.20
2023-01-09T05:10:26.120Z,31.27
2023-01-09T05:15:47.929Z,31.75
2023-01-09T05:21:09.760Z,33.78
2023-01-09T05:26:31.636Z,30.42
2023-01-09T05:31:53.549Z,33.95
2023-01-09T05:37:15.343Z,27.90
2023-01-09T05:42:37.167Z,33.78
2023-01-09T05:47:59.354Z,30.83
2023-01-09T05:53:21.167Z,29.60
2023-01-09T05:58:42.987Z,28.70
2023-01-09T06:04:04.872Z,27.80
2023-01-09T06:09:26.750Z,28.98
2023-01-09T06:14:48.634Z,25.88
2023-01-09T06:20:11.360Z,25.80
2023-01-09T06:25:33.223Z,25.08
2023-01-09T06:30:55.119Z,24.17
2023-01-09T06:36:17.066Z,25.17
2023-01-09T06:41:38.879Z,28.67
2023-01-09T06:47:01.087Z,25.17
2023-01-09T06:52:22.891Z,26.42
2023-01-09T06:57:44.796Z,27.02
2023-01-09T07:03:06.891Z,22.80
2023-01-09T07:08:28.747Z,28.48
2023-01-09T07:13:50.700Z,27.23
2023-01-09T07:19:12.546Z,24.40
2023-01-09T07:24:34.531Z,22.27
2023-01-09T07:29:56.363Z,24.73
2023-01-09T07:35:18.378Z,22.75
2023-01-09T07:40:40.214Z,22.83
2023-01-09T07:46:02.110Z,23.02
2023-01-09T07:51:23.985Z,22.10
2023-01-09T07:56:45.852Z,25.08
2023-01-09T08:02:09.508Z,21.42
2023-01-09T08:07:31.488Z,27.10
2023-01-09T08:12:53.502Z,22.55
2023-01-09T08:18:15.334Z,20.30
2023-01-09T08:23:37.850Z,23.67
2023-01-09T08:28:59.751Z,22.00
2023-01-09T08:34:21.979Z,19.33
2023-01-09T08:39:43.831Z,22.23
2023-01-09T08:45:06.269Z,23.30
2023-01-09T08:50:28.109Z,19.60
2023-01-09T08:55:50.156Z,20.50
2023-01-09T09:01:12.233Z,21.17
2023-01-09T09:06:34.561Z,22.50
2023-01-09T09:11:56.501Z,23.38
2023-01-09T09:17:18.391Z,24.42
2023-01-09T09:22:40.238Z,21.08
2023-01-09T09:28:02.141Z,20.50
2023-01-09T09:33:24.048Z,18.60
2023-01-09T09:38:46.289Z,23.35
2023-01-09T09:44:08.057Z,20.42
2023-01-09T09:49:53.448Z,21.17
2023-01-09T09:55:24.151Z,21.53
2023-01-09T10:00:46.138Z,20.88
2023-01-09T10:06:15.388Z,24.10
2023-01-09T10:11:47.350Z,22.60
2023-01-09T10:17:21.917Z,18.65
2023-01-09T10:22:52.836Z,26.42
2023-01-09T10:28:39.469Z,25.15
2023-01-09T10:34:23.082Z,24.38
2023-01-09T10:39:50.073Z,22.98
2023-01-09T10:45:24.234Z,22.58
2023-01-09T10:50:50.038Z,23.55
2023-01-09T10:56:19.668Z,17.53
2023-01-09T11:01:42.007Z,20.55
2023-01-09T11:07:15.915Z,23.15
2023-01-09T11:12:39.368Z,23.23
2023-01-09T11:18:18.361Z,23.45
2023-01-09T11:23:40.359Z,21.00
2023-01-09T11:29:06.007Z,24.60
2023-01-09T11:34:31.802Z,23.67
2023-01-09T11:39:54.907Z,25.23
2023-01-09T11:45:35.714Z,23.08
2023-01-09T11:50:59.559Z,29.55
2023-01-09T11:56:21.877Z,29.38
2023-01-09T12:02:01.625Z,23.00
2023-01-09T12:07:48.307Z,23.08
2023-01-09T12:13:28.114Z,21.63
2023-01-09T12:19:31.909Z,24.23
2023-01-09T12:24:56.522Z,22.67
2023-01-09T12:30:33.475Z,21.58
2023-01-09T12:36:29.809Z,25.23
2023-01-09T12:42:07.681Z,25.35
2023-01-09T12:47:45.800Z,21.95
2023-01-09T12:53:30.218Z,21.05
2023-01-09T12:58:57.412Z,23.13
2023-01-09T13:04:28.176Z,24.67
2023-01-09T13:09:55.859Z,21.55
2023-01-09T13:15:29.849Z,21.65
2023-01-09T13:20:55.021Z,21.95
2023-01-09T13:26:30.302Z,22.63
2023-01-09T13:32:15.763Z,18.38
2023-01-09T13:37:37.633Z,22.63
2023-01-09T13:43:06.459Z,21.90
2023-01-09T13:48:39.126Z,21.00
2023-01-09T13:54:01.055Z,22.80
2023-01-09T13:59:27.788Z,26.63
2023-01-09T14:04:49.720Z,25.27
2023-01-09T14:10:35.537Z,22.88
2023-01-09T14:16:03.474Z,21.33
2023-01-09T14:21:25.518Z,24.33
2023-01-09T14:26:58.844Z,21.75
2023-01-09T14:32:23.461Z,22.35
2023-01-09T14:37:58.785Z,23.00
2023-01-09T14:43:38.722Z,19.83
2023-01-09T14:49:12.368Z,20.15
2023-01-09T14:54:40.573Z,22.27
2023-01-09T15:00:06.459Z,18.98
2023-01-09T15:05:28.457Z,21.63
2023-01-09T15:10:52.707Z,20.05
2023-01-09T15:16:20.405Z,20.33
2023-01-09T15:21:56.977Z,22.65
2023-01-09T15:27:18.926Z,23.33
2023-01-09T15:32:40.946Z,24.48
2023-01-09T15:38:03.040Z,22.95
2023-01-09T15:43:28.065Z,22.00
2023-01-09T15:48:54.057Z,21.08
2023-01-09T15:54:20.866Z,19.00
2023-01-09T15:59:42.734Z,24.95
2023-01-09T16:05:13.009Z,19.73
2023-01-09T16:10:35.558Z,19.65
2023-01-09T16:16:01.171Z,25.50
2023-01-09T16:21:24.646Z,26.23
2023-01-09T16:26:46.645Z,22.38
2023-01-09T16:32:18.895Z,24.33
2023-01-09T16:37:40.793Z,21.90
2023-01-09T16:43:02.823Z,23.52
2023-01-09T16:48:24.668Z,24.00
2023-01-09T16:53:47.124Z,25.70
2023-01-09T16:59:13.674Z,25.88
2023-01-09T17:09:57.259Z,24.33
2023-01-09T17:15:19.144Z,24.42
2023-01-09T17:20:43.913Z,25.80
2023-01-09T17:26:05.982Z,27.52
2023-01-09T17:31:27.940Z,25.50
2023-01-09T17:36:49.856Z,25.10
2023-01-09T17:42:11.891Z,29.65
2023-01-09T17:47:33.741Z,25.77
2023-01-09T17:52:55.650Z,26.02
2023-01-09T17:58:28.826Z,27.60
2023-01-09T18:03:50.735Z,25.30
2023-01-09T18:09:17.377Z,26.83
2023-01-09T18:14:39.460Z,26.15
2023-01-09T18:20:01.311Z,25.45
2023-01-09T18:25:23.155Z,26.67
2023-01-09T18:30:46.070Z,27.83
2023-01-09T18:36:09.479Z,26.63
2023-01-09T18:41:31.713Z,32.75
2023-01-09T18:46:53.659Z,27.90
2023-01-09T18:52:15.577Z,26.75
2023-01-09T18:57:37.662Z,27.67
2023-01-09T19:02:59.526Z,26.80
2023-01-09T19:08:21.657Z,27.70
2023-01-09T19:13:43.994Z,26.58
2023-01-09T19:19:06.334Z,25.08
2023-01-09T19:24:28.201Z,25.13
2023-01-09T19:29:50.045Z,24.23
2023-01-09T19:35:11.880Z,24.80
2023-01-09T19:40:33.704Z,23.95
2023-01-09T19:45:56.187Z,26.27
2023-01-09T19:51:20.205Z,25.30
2023-01-09T19:56:42.182Z,22.50
2023-01-09T20:02:04.055Z,22.17
2023-01-09T20:07:25.933Z,22.33
2023-01-09T20:12:47.789Z,22.00
2023-01-09T20:18:09.630Z,22.73
2023-01-09T20:23:31.520Z,22.48
2023-01-09T20:28:53.714Z,26.38
2023-01-09T20:34:16.056Z,25.33
2023-01-09T20:39:38.150Z,25.55
2023-01-09T20:45:00.124Z,26.30
2023-01-09T20:50:22.387Z,28.17
2023-01-09T20:55:44.240Z,27.27
2023-01-09T21:01:08.111Z,26.75
2023-01-09T21:06:30.144Z,30.15
2023-01-09T21:11:52.162Z,27.45
2023-01-09T21:17:14.008Z,30.65
2023-01-09T21:22:36.824Z,27.60
2023-01-09T21:27:58.699Z,28.45
2023-01-09T21:33:20.764Z,31.77
2023-01-09T21:38:43.399Z,33.72
2023-01-09T21:44:06.311Z,34.40
2023-01-09T21:49:29.340Z,35.70
2023-01-09T21:54:51.772Z,38.28
2023-01-09T22:00:14.178Z,38.10
2023-01-09T22:05:36.743Z,38.28
2023-01-09T22:10:58.599Z,38.30
2023-01-09T22:16:20.492Z,43.47
2023-01-09T22:21:42.346Z,40.15
2023-01-09T22:27:04.461Z,44.15
2023-01-09T22:32:26.324Z,43.40
2023-01-09T22:37:48.259Z,42.58
2023-01-09T22:43:10.206Z,43.40
2023-01-09T22:48:32.413Z,43.63
2023-01-09T22:53:54.358Z,42.60
2023-01-09T22:59:16.261Z,44.58
2023-01-09T23:04:38.116Z,39.92
2023-01-09T23:10:00.007Z,42.00
2023-01-09T23:15:21.850Z,40.75
2023-01-09T23:20:53.649Z,41.50
2023-01-09T23:26:15.462Z,43.17
2023-01-09T23:31:37.702Z,42.03
2023-01-09T23:36:59.575Z,38.55
2023-01-09T23:42:21.440Z,40.85
2023-01-09T23:47:43.296Z,42.42
2023-01-09T23:53:05.530Z,39.47
2023-01-09T23:58:27.495Z,40.88
